Terminal Aerodrome Forecast
Issued by NWS

Home | Current Version | Previous Version | Text Only | Print | Product List | Glossary On
Versions: 1 2 3 4 5 6 7 8 9 10 11 12 13 14 15 16 17 18 19 20
000
FTUS45 KGJT 242340
TAFASE
TAF
KASE 242340Z 2500/2524 34013G20KT P6SM VCSH OVC070
     FM250400 VRB03KT P6SM FEW250
     FM250500 33005KT P6SM FEW250
     FM252000 33010KT P6SM SKC=

USA.gov is the U.S. government's official web portal to all federal, state and local government web resources and services.